sensor_id;sensor_type;location;lat;lon;timestamp;pressure;altitude;pressure_sealevel;temperature;humidity
70555;BME280;58104;52.744;15.242;2023-02-18T00:00:29;100378.41;;;18.36;39.53
70555;BME280;58104;52.744;15.242;2023-02-18T00:02:54;100381.46;;;18.28;39.81
70555;BME280;58104;52.744;15.242;2023-02-18T00:05:19;100363.10;;;18.35;39.61
70555;BME280;58104;52.744;15.242;2023-02-18T00:07:45;100371.32;;;18.34;39.53
70555;BME280;58104;52.744;15.242;2023-02-18T00:10:13;100376.81;;;18.23;39.39
70555;BME280;58104;52.744;15.242;2023-02-18T00:12:36;100376.01;;;18.25;39.59
70555;BME280;58104;52.744;15.242;2023-02-18T00:15:01;100357.85;;;18.22;39.57
70555;BME280;58104;52.744;15.242;2023-02-18T00:17:27;100383.21;;;18.21;38.88
70555;BME280;58104;52.744;15.242;2023-02-18T00:19:51;100396.96;;;18.19;39.49
70555;BME280;58104;52.744;15.242;2023-02-18T00:22:17;100390.40;;;18.22;39.30
70555;BME280;58104;52.744;15.242;2023-02-18T00:24:42;100406.84;;;18.21;39.69
70555;BME280;58104;52.744;15.242;2023-02-18T00:27:12;100417.09;;;18.24;39.32
70555;BME280;58104;52.744;15.242;2023-02-18T00:29:33;100395.37;;;18.27;39.34
70555;BME280;58104;52.744;15.242;2023-02-18T00:31:58;100405.98;;;18.38;39.56
70555;BME280;58104;52.744;15.242;2023-02-18T00:34:24;100407.62;;;18.56;39.62
70555;BME280;58104;52.744;15.242;2023-02-18T00:36:49;100406.54;;;18.76;39.27
70555;BME280;58104;52.744;15.242;2023-02-18T00:39:15;100407.47;;;18.75;39.32
70555;BME280;58104;52.744;15.242;2023-02-18T00:41:40;100413.69;;;18.90;39.28
70555;BME280;58104;52.744;15.242;2023-02-18T00:44:05;100415.51;;;18.83;39.62
70555;BME280;58104;52.744;15.242;2023-02-18T00:46:32;100422.47;;;18.87;39.54
70555;BME280;58104;52.744;15.242;2023-02-18T00:48:56;100424.39;;;18.96;39.72
70555;BME280;58104;52.744;15.242;2023-02-18T00:51:23;100429.91;;;18.97;39.73
70555;BME280;58104;52.744;15.242;2023-02-18T00:53:47;100432.96;;;18.94;40.05
70555;BME280;58104;52.744;15.242;2023-02-18T00:56:13;100436.79;;;18.99;39.97
70555;BME280;58104;52.744;15.242;2023-02-18T00:58:38;100435.28;;;18.95;40.02
70555;BME280;58104;52.744;15.242;2023-02-18T01:01:05;100435.01;;;18.85;40.32
70555;BME280;58104;52.744;15.242;2023-02-18T01:03:29;100433.01;;;19.01;40.22
70555;BME280;58104;52.744;15.242;2023-02-18T01:05:54;100440.47;;;19.04;40.22
70555;BME280;58104;52.744;15.242;2023-02-18T01:08:20;100429.69;;;19.00;40.52
70555;BME280;58104;52.744;15.242;2023-02-18T01:10:46;100426.92;;;18.91;40.51
70555;BME280;58104;52.744;15.242;2023-02-18T01:13:10;100423.03;;;18.90;40.74
70555;BME280;58104;52.744;15.242;2023-02-18T01:15:36;100422.72;;;18.89;40.75
70555;BME280;58104;52.744;15.242;2023-02-18T01:18:01;100416.55;;;18.90;40.98
70555;BME280;58104;52.744;15.242;2023-02-18T01:20:26;100410.29;;;19.00;41.25
70555;BME280;58104;52.744;15.242;2023-02-18T01:22:52;100422.83;;;19.01;41.10
70555;BME280;58104;52.744;15.242;2023-02-18T01:25:17;100418.37;;;18.89;41.32
70555;BME280;58104;52.744;15.242;2023-02-18T01:27:43;100425.26;;;18.94;41.50
70555;BME280;58104;52.744;15.242;2023-02-18T01:30:13;100414.49;;;19.04;41.52
70555;BME280;58104;52.744;15.242;2023-02-18T01:32:35;100424.78;;;18.88;41.51
70555;BME280;58104;52.744;15.242;2023-02-18T01:37:24;100415.48;;;18.84;41.85
70555;BME280;58104;52.744;15.242;2023-02-18T01:39:50;100406.90;;;18.94;41.72
70555;BME280;58104;52.744;15.242;2023-02-18T01:42:19;100412.92;;;18.90;41.82
70555;BME280;58104;52.744;15.242;2023-02-18T01:44:40;100391.65;;;18.89;42.09
70555;BME280;58104;52.744;15.242;2023-02-18T01:47:06;100402.61;;;18.79;42.01
70555;BME280;58104;52.744;15.242;2023-02-18T01:49:33;100407.35;;;18.85;42.20
70555;BME280;58104;52.744;15.242;2023-02-18T01:52:00;100410.84;;;18.95;42.17
70555;BME280;58104;52.744;15.242;2023-02-18T01:54:25;100419.04;;;18.93;42.17
70555;BME280;58104;52.744;15.242;2023-02-18T01:56:50;100423.66;;;18.81;42.17
70555;BME280;58104;52.744;15.242;2023-02-18T01:59:16;100414.49;;;18.90;42.37
70555;BME280;58104;52.744;15.242;2023-02-18T02:01:41;100415.51;;;18.88;42.32
70555;BME280;58104;52.744;15.242;2023-02-18T02:04:04;100415.41;;;18.89;42.26
70555;BME280;58104;52.744;15.242;2023-02-18T02:06:29;100425.84;;;18.92;42.56
70555;BME280;58104;52.744;15.242;2023-02-18T02:11:28;100420.45;;;18.87;42.60
70555;BME280;58104;52.744;15.242;2023-02-18T02:13:58;100424.50;;;18.95;42.67
70555;BME280;58104;52.744;15.242;2023-02-18T02:16:17;100429.42;;;18.90;42.62
70555;BME280;58104;52.744;15.242;2023-02-18T02:18:45;100419.44;;;18.98;42.69
70555;BME280;58104;52.744;15.242;2023-02-18T02:23:38;100429.81;;;19.01;42.85
70555;BME280;58104;52.744;15.242;2023-02-18T02:26:08;100430.02;;;18.97;42.95
70555;BME280;58104;52.744;15.242;2023-02-18T02:30:57;100427.92;;;18.90;43.74
70555;BME280;58104;52.744;15.242;2023-02-18T02:33:20;100436.15;;;18.94;43.78
70555;BME280;58104;52.744;15.242;2023-02-18T02:35:36;100432.02;;;18.90;43.75
70555;BME280;58104;52.744;15.242;2023-02-18T02:38:04;100421.91;;;18.97;43.72
70555;BME280;58104;52.744;15.242;2023-02-18T02:40:29;100441.91;;;18.89;43.52
70555;BME280;58104;52.744;15.242;2023-02-18T02:42:59;100435.09;;;18.95;43.58
70555;BME280;58104;52.744;15.242;2023-02-18T02:45:23;100418.19;;;18.98;43.70
70555;BME280;58104;52.744;15.242;2023-02-18T02:47:48;100436.46;;;18.98;43.71
70555;BME280;58104;52.744;15.242;2023-02-18T02:50:11;100424.78;;;18.90;43.75
70555;BME280;58104;52.744;15.242;2023-02-18T02:52:35;100435.49;;;19.02;43.59
70555;BME280;58104;52.744;15.242;2023-02-18T02:54:57;100444.38;;;18.90;43.61
70555;BME280;58104;52.744;15.242;2023-02-18T02:59:52;100425.97;;;18.94;43.83
70555;BME280;58104;52.744;15.242;2023-02-18T03:02:23;100439.22;;;18.84;43.87
70555;BME280;58104;52.744;15.242;2023-02-18T03:04:49;100436.93;;;18.82;43.90
70555;BME280;58104;52.744;15.242;2023-02-18T03:07:13;100435.33;;;18.93;44.09
70555;BME280;58104;52.744;15.242;2023-02-18T03:09:38;100439.62;;;18.92;44.01
70555;BME280;58104;52.744;15.242;2023-02-18T03:12:00;100444.02;;;18.83;43.84
70555;BME280;58104;52.744;15.242;2023-02-18T03:14:26;100457.57;;;18.83;44.12
70555;BME280;58104;52.744;15.242;2023-02-18T03:16:49;100455.01;;;18.78;44.28
70555;BME280;58104;52.744;15.242;2023-02-18T03:19:18;100458.19;;;18.88;43.87
70555;BME280;58104;52.744;15.242;2023-02-18T03:21:41;100450.38;;;18.84;44.00
70555;BME280;58104;52.744;15.242;2023-02-18T03:24:07;100446.58;;;18.82;44.20
70555;BME280;58104;52.744;15.242;2023-02-18T03:26:29;100439.99;;;18.83;44.42
70555;BME280;58104;52.744;15.242;2023-02-18T03:28:55;100451.43;;;18.75;44.47
70555;BME280;58104;52.744;15.242;2023-02-18T03:31:21;100451.61;;;18.75;44.85
70555;BME280;58104;52.744;15.242;2023-02-18T03:33:46;100455.74;;;18.77;44.89
70555;BME280;58104;52.744;15.242;2023-02-18T03:36:10;100456.62;;;18.81;44.79
70555;BME280;58104;52.744;15.242;2023-02-18T03:38:38;100462.34;;;18.83;44.92
70555;BME280;58104;52.744;15.242;2023-02-18T03:41:00;100472.11;;;18.74;44.80
70555;BME280;58104;52.744;15.242;2023-02-18T03:43:26;100476.24;;;18.77;45.14
70555;BME280;58104;52.744;15.242;2023-02-18T03:45:51;100472.08;;;18.61;45.17
70555;BME280;58104;52.744;15.242;2023-02-18T03:48:17;100470.30;;;18.76;45.05
70555;BME280;58104;52.744;15.242;2023-02-18T03:50:42;100479.01;;;18.74;44.88
70555;BME280;58104;52.744;15.242;2023-02-18T03:53:07;100467.90;;;18.79;45.25
70555;BME280;58104;52.744;15.242;2023-02-18T03:55:33;100479.42;;;18.74;45.18
70555;BME280;58104;52.744;15.242;2023-02-18T03:57:58;100471.40;;;18.77;45.40
70555;BME280;58104;52.744;15.242;2023-02-18T04:00:24;100489.36;;;18.78;45.27
70555;BME280;58104;52.744;15.242;2023-02-18T04:02:49;100488.81;;;18.71;45.28
70555;BME280;58104;52.744;15.242;2023-02-18T04:05:14;100483.44;;;18.78;45.23
70555;BME280;58104;52.744;15.242;2023-02-18T04:07:40;100489.49;;;18.85;45.29
70555;BME280;58104;52.744;15.242;2023-02-18T04:10:06;100495.98;;;18.88;45.23
70555;BME280;58104;52.744;15.242;2023-02-18T04:12:30;100491.15;;;18.88;45.23
70555;BME280;58104;52.744;15.242;2023-02-18T04:14:56;100498.84;;;18.85;45.33
70555;BME280;58104;52.744;15.242;2023-02-18T04:17:21;100497.46;;;18.83;45.18
70555;BME280;58104;52.744;15.242;2023-02-18T04:19:47;100504.60;;;18.89;45.09
70555;BME280;58104;52.744;15.242;2023-02-18T04:22:12;100503.93;;;18.90;45.03
70555;BME280;58104;52.744;15.242;2023-02-18T04:24:37;100499.49;;;18.95;44.98
70555;BME280;58104;52.744;15.242;2023-02-18T04:27:03;100500.53;;;18.94;45.20
70555;BME280;58104;52.744;15.242;2023-02-18T04:29:28;100498.18;;;18.96;45.39
70555;BME280;58104;52.744;15.242;2023-02-18T04:31:54;100473.25;;;18.96;45.38
70555;BME280;58104;52.744;15.242;2023-02-18T04:34:19;100490.12;;;18.82;45.79
70555;BME280;58104;52.744;15.242;2023-02-18T04:36:45;100504.37;;;18.90;45.87
70555;BME280;58104;52.744;15.242;2023-02-18T04:39:10;100500.92;;;18.95;45.84
70555;BME280;58104;52.744;15.242;2023-02-18T04:41:35;100485.23;;;18.90;45.75
70555;BME280;58104;52.744;15.242;2023-02-18T04:44:01;100503.24;;;18.91;45.98
70555;BME280;58104;52.744;15.242;2023-02-18T04:46:26;100504.44;;;18.79;45.75
70555;BME280;58104;52.744;15.242;2023-02-18T04:48:51;100510.95;;;18.80;46.09
70555;BME280;58104;52.744;15.242;2023-02-18T04:51:17;100510.20;;;18.77;46.15
70555;BME280;58104;52.744;15.242;2023-02-18T04:53:42;100499.47;;;18.84;46.42
70555;BME280;58104;52.744;15.242;2023-02-18T04:56:08;100499.37;;;18.81;46.36
70555;BME280;58104;52.744;15.242;2023-02-18T04:58:33;100495.21;;;18.86;46.31
70555;BME280;58104;52.744;15.242;2023-02-18T05:00:59;100488.66;;;18.80;46.28
70555;BME280;58104;52.744;15.242;2023-02-18T05:03:24;100500.79;;;18.85;46.23
70555;BME280;58104;52.744;15.242;2023-02-18T05:05:49;100497.53;;;18.72;46.34
70555;BME280;58104;52.744;15.242;2023-02-18T05:08:15;100493.31;;;18.79;46.24
70555;BME280;58104;52.744;15.242;2023-02-18T05:10:40;100496.60;;;18.75;46.38
70555;BME280;58104;52.744;15.242;2023-02-18T05:13:06;100508.93;;;18.84;46.06
70555;BME280;58104;52.744;15.242;2023-02-18T05:15:31;100513.91;;;18.83;46.28
70555;BME280;58104;52.744;15.242;2023-02-18T05:17:56;100518.74;;;18.88;46.16
70555;BME280;58104;52.744;15.242;2023-02-18T05:20:22;100522.03;;;18.85;46.23
70555;BME280;58104;52.744;15.242;2023-02-18T05:22:47;100525.89;;;18.82;46.27
70555;BME280;58104;52.744;15.242;2023-02-18T05:25:13;100529.26;;;18.84;46.21
70555;BME280;58104;52.744;15.242;2023-02-18T05:27:38;100530.02;;;18.84;46.15
70555;BME280;58104;52.744;15.242;2023-02-18T05:30:05;100530.26;;;18.76;46.29
70555;BME280;58104;52.744;15.242;2023-02-18T05:32:29;100527.22;;;18.87;46.43
70555;BME280;58104;52.744;15.242;2023-02-18T05:34:54;100543.22;;;18.75;46.13
70555;BME280;58104;52.744;15.242;2023-02-18T05:37:20;100525.23;;;18.82;46.59
70555;BME280;58104;52.744;15.242;2023-02-18T05:39:45;100546.59;;;18.75;46.52
70555;BME280;58104;52.744;15.242;2023-02-18T05:42:10;100542.84;;;18.86;46.53
70555;BME280;58104;52.744;15.242;2023-02-18T05:44:36;100523.67;;;18.84;46.52
70555;BME280;58104;52.744;15.242;2023-02-18T05:47:04;100541.69;;;18.88;46.57
70555;BME280;58104;52.744;15.242;2023-02-18T05:49:27;100550.99;;;18.88;46.51
70555;BME280;58104;52.744;15.242;2023-02-18T05:51:52;100549.27;;;18.81;46.67
70555;BME280;58104;52.744;15.242;2023-02-18T05:54:18;100558.32;;;18.88;46.64
70555;BME280;58104;52.744;15.242;2023-02-18T05:56:43;100555.64;;;18.76;46.70
70555;BME280;58104;52.744;15.242;2023-02-18T05:59:08;100566.63;;;18.89;46.75
70555;BME280;58104;52.744;15.242;2023-02-18T06:01:34;100570.19;;;18.86;46.54
70555;BME280;58104;52.744;15.242;2023-02-18T06:06:25;100564.34;;;18.87;46.83
70555;BME280;58104;52.744;15.242;2023-02-18T06:08:50;100567.08;;;18.84;46.87
70555;BME280;58104;52.744;15.242;2023-02-18T06:11:15;100561.96;;;18.87;47.07
70555;BME280;58104;52.744;15.242;2023-02-18T06:13:41;100566.33;;;18.90;46.92
70555;BME280;58104;52.744;15.242;2023-02-18T06:16:06;100570.75;;;18.82;46.85
70555;BME280;58104;52.744;15.242;2023-02-18T06:18:32;100553.63;;;18.90;46.91
70555;BME280;58104;52.744;15.242;2023-02-18T06:20:57;100569.00;;;18.84;46.88
70555;BME280;58104;52.744;15.242;2023-02-18T06:23:22;100576.21;;;18.96;46.71
70555;BME280;58104;52.744;15.242;2023-02-18T06:25:48;100577.99;;;18.93;47.05
70555;BME280;58104;52.744;15.242;2023-02-18T06:28:13;100582.17;;;18.97;47.07
70555;BME280;58104;52.744;15.242;2023-02-18T06:33:04;100587.29;;;19.02;46.96
70555;BME280;58104;52.744;15.242;2023-02-18T06:35:30;100578.69;;;18.99;46.88
70555;BME280;58104;52.744;15.242;2023-02-18T06:37:55;100576.78;;;19.00;46.76
70555;BME280;58104;52.744;15.242;2023-02-18T06:40:20;100575.90;;;19.06;46.45
70555;BME280;58104;52.744;15.242;2023-02-18T06:42:46;100575.71;;;19.06;46.79
70555;BME280;58104;52.744;15.242;2023-02-18T06:45:11;100565.80;;;19.12;46.62
70555;BME280;58104;52.744;15.242;2023-02-18T06:47:37;100564.75;;;19.22;46.44
70555;BME280;58104;52.744;15.242;2023-02-18T06:50:02;100568.90;;;19.16;46.77
70555;BME280;58104;52.744;15.242;2023-02-18T06:52:28;100565.25;;;19.16;46.82
70555;BME280;58104;52.744;15.242;2023-02-18T06:54:52;100575.00;;;19.25;46.65
70555;BME280;58104;52.744;15.242;2023-02-18T06:57:18;100569.12;;;19.29;46.77
70555;BME280;58104;52.744;15.242;2023-02-18T06:59:44;100574.33;;;19.28;46.51
70555;BME280;58104;52.744;15.242;2023-02-18T07:02:10;100566.23;;;19.31;46.66
70555;BME280;58104;52.744;15.242;2023-02-18T07:04:34;100572.20;;;19.32;46.49
70555;BME280;58104;52.744;15.242;2023-02-18T07:07:00;100567.77;;;19.31;46.46
70555;BME280;58104;52.744;15.242;2023-02-18T07:09:25;100564.20;;;19.33;46.58
70555;BME280;58104;52.744;15.242;2023-02-18T07:11:50;100562.52;;;19.29;46.53
70555;BME280;58104;52.744;15.242;2023-02-18T07:14:16;100563.21;;;19.30;46.67
70555;BME280;58104;52.744;15.242;2023-02-18T07:16:41;100564.39;;;19.23;46.62
70555;BME280;58104;52.744;15.242;2023-02-18T07:19:07;100556.40;;;19.19;46.50
70555;BME280;58104;52.744;15.242;2023-02-18T07:21:32;100571.49;;;19.16;46.54
70555;BME280;58104;52.744;15.242;2023-02-18T07:23:57;100568.79;;;19.21;46.65
70555;BME280;58104;52.744;15.242;2023-02-18T07:26:23;100558.10;;;19.26;46.65
70555;BME280;58104;52.744;15.242;2023-02-18T07:28:48;100563.55;;;19.26;46.62
70555;BME280;58104;52.744;15.242;2023-02-18T07:31:14;100575.53;;;19.31;46.60
70555;BME280;58104;52.744;15.242;2023-02-18T07:33:39;100564.59;;;19.33;46.66
70555;BME280;58104;52.744;15.242;2023-02-18T07:36:05;100564.72;;;19.33;46.56
70555;BME280;58104;52.744;15.242;2023-02-18T07:38:30;100566.78;;;19.29;46.54
70555;BME280;58104;52.744;15.242;2023-02-18T07:40:55;100568.04;;;19.26;46.73
70555;BME280;58104;52.744;15.242;2023-02-18T07:43:21;100575.54;;;19.35;46.49
70555;BME280;58104;52.744;15.242;2023-02-18T07:45:46;100573.42;;;19.32;46.39
70555;BME280;58104;52.744;15.242;2023-02-18T07:50:38;100570.11;;;19.37;46.59
70555;BME280;58104;52.744;15.242;2023-02-18T07:53:03;100563.10;;;19.33;46.81
70555;BME280;58104;52.744;15.242;2023-02-18T07:55:27;100554.54;;;19.35;46.85
70555;BME280;58104;52.744;15.242;2023-02-18T07:57:53;100561.76;;;19.42;46.79
70555;BME280;58104;52.744;15.242;2023-02-18T08:00:19;100564.77;;;19.37;46.94
70555;BME280;58104;52.744;15.242;2023-02-18T08:02:44;100559.72;;;19.40;46.83
70555;BME280;58104;52.744;15.242;2023-02-18T08:05:09;100552.30;;;19.39;47.23
70555;BME280;58104;52.744;15.242;2023-02-18T08:07:35;100558.93;;;19.41;47.10
70555;BME280;58104;52.744;15.242;2023-02-18T08:10:00;100549.19;;;19.46;44.86
70555;BME280;58104;52.744;15.242;2023-02-18T08:12:25;100564.77;;;18.96;39.65
70555;BME280;58104;52.744;15.242;2023-02-18T08:14:51;100557.47;;;19.05;37.60
70555;BME280;58104;52.744;15.242;2023-02-18T08:17:16;100543.44;;;18.60;37.63
70555;BME280;58104;52.744;15.242;2023-02-18T08:19:41;100540.97;;;19.08;37.53
70555;BME280;58104;52.744;15.242;2023-02-18T08:22:07;100551.13;;;18.47;36.97
70555;BME280;58104;52.744;15.242;2023-02-18T08:24:32;100548.83;;;18.73;36.49
70555;BME280;58104;52.744;15.242;2023-02-18T08:26:58;100545.25;;;19.01;37.16
70555;BME280;58104;52.744;15.242;2023-02-18T08:29:23;100541.36;;;19.04;35.56
70555;BME280;58104;52.744;15.242;2023-02-18T08:31:48;100544.29;;;19.04;36.07
70555;BME280;58104;52.744;15.242;2023-02-18T08:34:14;100535.32;;;19.27;36.07
70555;BME280;58104;52.744;15.242;2023-02-18T08:36:39;100540.51;;;19.36;35.72
70555;BME280;58104;52.744;15.242;2023-02-18T08:39:05;100546.03;;;19.29;34.79
70555;BME280;58104;52.744;15.242;2023-02-18T08:41:30;100531.96;;;19.36;35.80
70555;BME280;58104;52.744;15.242;2023-02-18T08:43:55;100545.25;;;19.29;34.57
70555;BME280;58104;52.744;15.242;2023-02-18T08:46:21;100536.95;;;19.33;34.86
70555;BME280;58104;52.744;15.242;2023-02-18T08:48:46;100525.80;;;19.35;34.76
70555;BME280;58104;52.744;15.242;2023-02-18T08:51:14;100525.19;;;19.33;34.31
70555;BME280;58104;52.744;15.242;2023-02-18T08:53:37;100515.29;;;19.30;34.01
70555;BME280;58104;52.744;15.242;2023-02-18T08:56:05;100517.29;;;19.34;34.38
70555;BME280;58104;52.744;15.242;2023-02-18T08:58:28;100524.16;;;19.18;33.21
70555;BME280;58104;52.744;15.242;2023-02-18T09:00:53;100518.42;;;19.25;33.82
70555;BME280;58104;52.744;15.242;2023-02-18T09:03:19;100509.14;;;19.23;33.44
70555;BME280;58104;52.744;15.242;2023-02-18T09:05:44;100507.07;;;19.09;33.15
70555;BME280;58104;52.744;15.242;2023-02-18T09:08:10;100516.89;;;18.77;33.26
70555;BME280;58104;52.744;15.242;2023-02-18T09:10:35;100495.30;;;18.79;33.08
70555;BME280;58104;52.744;15.242;2023-02-18T09:13:01;100495.70;;;18.81;32.89
70555;BME280;58104;52.744;15.242;2023-02-18T09:15:26;100494.64;;;19.03;32.77
70555;BME280;58104;52.744;15.242;2023-02-18T09:17:52;100500.38;;;19.14;32.39
70555;BME280;58104;52.744;15.242;2023-02-18T09:20:17;100510.36;;;18.84;32.38
70555;BME280;58104;52.744;15.242;2023-02-18T09:22:42;100507.19;;;18.94;32.37
70555;BME280;58104;52.744;15.242;2023-02-18T09:25:08;100504.09;;;19.09;32.80
70555;BME280;58104;52.744;15.242;2023-02-18T09:27:33;100508.26;;;18.94;32.24
70555;BME280;58104;52.744;15.242;2023-02-18T09:29:59;100502.13;;;19.10;32.30
70555;BME280;58104;52.744;15.242;2023-02-18T09:32:24;100504.57;;;19.00;32.58
70555;BME280;58104;52.744;15.242;2023-02-18T09:34:50;100499.49;;;19.07;32.97
70555;BME280;58104;52.744;15.242;2023-02-18T09:37:15;100499.17;;;19.19;32.62
70555;BME280;58104;52.744;15.242;2023-02-18T09:39:40;100496.78;;;18.96;33.00
70555;BME280;58104;52.744;15.242;2023-02-18T09:42:11;100486.28;;;19.05;33.29
70555;BME280;58104;52.744;15.242;2023-02-18T09:44:35;100494.82;;;18.82;32.55
70555;BME280;58104;52.744;15.242;2023-02-18T09:47:01;100481.93;;;18.88;32.46
70555;BME280;58104;52.744;15.242;2023-02-18T09:49:25;100473.10;;;18.85;32.93
70555;BME280;58104;52.744;15.242;2023-02-18T09:51:48;100489.01;;;18.97;31.80
70555;BME280;58104;52.744;15.242;2023-02-18T09:54:16;100471.18;;;18.88;32.61
70555;BME280;58104;52.744;15.242;2023-02-18T09:56:40;100486.34;;;18.75;31.98
70555;BME280;58104;52.744;15.242;2023-02-18T09:59:05;100483.41;;;18.90;32.69
70555;BME280;58104;52.744;15.242;2023-02-18T10:01:31;100475.41;;;19.00;32.19
70555;BME280;58104;52.744;15.242;2023-02-18T10:03:59;100494.21;;;18.89;32.54
70555;BME280;58104;52.744;15.242;2023-02-18T10:06:24;100481.44;;;18.62;32.02
70555;BME280;58104;52.744;15.242;2023-02-18T10:08:48;100483.53;;;18.96;32.49
70555;BME280;58104;52.744;15.242;2023-02-18T10:11:14;100489.44;;;18.88;32.27
70555;BME280;58104;52.744;15.242;2023-02-18T10:13:37;100481.35;;;18.96;32.41
70555;BME280;58104;52.744;15.242;2023-02-18T10:16:03;100478.16;;;18.90;32.36
70555;BME280;58104;52.744;15.242;2023-02-18T10:18:29;100475.40;;;19.06;32.38
70555;BME280;58104;52.744;15.242;2023-02-18T10:20:59;100475.90;;;18.77;32.59
70555;BME280;58104;52.744;15.242;2023-02-18T10:23:19;100469.73;;;18.85;32.52
70555;BME280;58104;52.744;15.242;2023-02-18T10:25:44;100444.52;;;18.98;32.53
70555;BME280;58104;52.744;15.242;2023-02-18T10:28:10;100457.19;;;18.93;32.70
70555;BME280;58104;52.744;15.242;2023-02-18T10:30:37;100446.47;;;18.81;32.87
70555;BME280;58104;52.744;15.242;2023-02-18T10:33:09;100421.69;;;18.81;32.98
70555;BME280;58104;52.744;15.242;2023-02-18T10:35:32;100442.92;;;18.86;33.00
70555;BME280;58104;52.744;15.242;2023-02-18T10:40:21;100427.81;;;18.70;32.88
70555;BME280;58104;52.744;15.242;2023-02-18T10:42:50;100429.74;;;18.82;32.74
70555;BME280;58104;52.744;15.242;2023-02-18T10:45:14;100417.36;;;18.79;32.73
70555;BME280;58104;52.744;15.242;2023-02-18T10:47:37;100418.32;;;18.89;32.70
70555;BME280;58104;52.744;15.242;2023-02-18T10:50:00;100423.46;;;18.76;33.09
70555;BME280;58104;52.744;15.242;2023-02-18T10:52:26;100410.64;;;18.77;33.32
70555;BME280;58104;52.744;15.242;2023-02-18T10:54:52;100414.81;;;18.82;33.43
70555;BME280;58104;52.744;15.242;2023-02-18T10:57:17;100417.78;;;18.70;33.22
70555;BME280;58104;52.744;15.242;2023-02-18T10:59:40;100412.33;;;18.60;33.88
70555;BME280;58104;52.744;15.242;2023-02-18T11:02:14;100409.61;;;18.61;33.83
70555;BME280;58104;52.744;15.242;2023-02-18T11:04:36;100398.26;;;18.58;34.27
70555;BME280;58104;52.744;15.242;2023-02-18T11:07:03;100385.00;;;18.61;34.11
70555;BME280;58104;52.744;15.242;2023-02-18T11:09:28;100373.21;;;18.61;34.18
70555;BME280;58104;52.744;15.242;2023-02-18T11:14:15;100342.99;;;18.64;34.15
70555;BME280;58104;52.744;15.242;2023-02-18T11:16:40;100335.35;;;18.53;34.54
70555;BME280;58104;52.744;15.242;2023-02-18T11:19:03;100331.57;;;18.40;35.25
70555;BME280;58104;52.744;15.242;2023-02-18T11:21:31;100331.58;;;18.29;35.27
70555;BME280;58104;52.744;15.242;2023-02-18T11:23:55;100334.49;;;18.33;35.40
70555;BME280;58104;52.744;15.242;2023-02-18T11:26:26;100334.54;;;18.27;35.55
70555;BME280;58104;52.744;15.242;2023-02-18T11:28:47;100329.77;;;18.22;35.61
70555;BME280;58104;52.744;15.242;2023-02-18T11:31:16;100327.94;;;18.08;35.83
70555;BME280;58104;52.744;15.242;2023-02-18T11:33:39;100326.60;;;18.03;36.00
70555;BME280;58104;52.744;15.242;2023-02-18T11:36:08;100329.92;;;18.18;35.95
70555;BME280;58104;52.744;15.242;2023-02-18T11:38:37;100322.93;;;18.33;35.87
70555;BME280;58104;52.744;15.242;2023-02-18T11:40:54;100316.94;;;18.20;35.94
70555;BME280;58104;52.744;15.242;2023-02-18T11:43:18;100309.18;;;18.12;36.24
70555;BME280;58104;52.744;15.242;2023-02-18T11:45:43;100303.81;;;18.12;36.16
70555;BME280;58104;52.744;15.242;2023-02-18T11:48:15;100296.70;;;17.90;36.65
70555;BME280;58104;52.744;15.242;2023-02-18T11:50:34;100282.89;;;18.12;36.33
70555;BME280;58104;52.744;15.242;2023-02-18T11:53:00;100273.83;;;17.94;36.69
70555;BME280;58104;52.744;15.242;2023-02-18T11:55:26;100277.91;;;18.00;36.81
70555;BME280;58104;52.744;15.242;2023-02-18T11:57:56;100268.54;;;18.01;36.65
70555;BME280;58104;52.744;15.242;2023-02-18T12:00:22;100265.94;;;18.11;36.59
70555;BME280;58104;52.744;15.242;2023-02-18T12:02:42;100266.06;;;18.02;36.70
70555;BME280;58104;52.744;15.242;2023-02-18T12:05:12;100262.86;;;18.01;36.71
70555;BME280;58104;52.744;15.242;2023-02-18T12:07:41;100261.10;;;17.98;37.02
70555;BME280;58104;52.744;15.242;2023-02-18T12:10:02;100255.27;;;18.05;36.65
70555;BME280;58104;52.744;15.242;2023-02-18T12:12:26;100250.85;;;18.02;36.77
70555;BME280;58104;52.744;15.242;2023-02-18T12:14:48;100245.12;;;17.72;37.29
70555;BME280;58104;52.744;15.242;2023-02-18T12:19:50;100225.31;;;17.63;37.50
70555;BME280;58104;52.744;15.242;2023-02-18T12:22:11;100221.22;;;17.58;37.62
70555;BME280;58104;52.744;15.242;2023-02-18T12:24:40;100213.97;;;17.39;37.96
70555;BME280;58104;52.744;15.242;2023-02-18T12:27:02;100207.86;;;17.50;37.86
70555;BME280;58104;52.744;15.242;2023-02-18T12:29:36;100203.02;;;17.43;37.95
70555;BME280;58104;52.744;15.242;2023-02-18T12:31:55;100205.02;;;17.40;37.97
70555;BME280;58104;52.744;15.242;2023-02-18T12:34:27;100209.07;;;17.61;37.59
70555;BME280;58104;52.744;15.242;2023-02-18T12:36:50;100204.65;;;17.57;37.27
70555;BME280;58104;52.744;15.242;2023-02-18T12:39:11;100194.80;;;17.77;37.17
70555;BME280;58104;52.744;15.242;2023-02-18T12:41:43;100189.66;;;17.39;37.69
70555;BME280;58104;52.744;15.242;2023-02-18T12:44:03;100184.81;;;17.40;37.82
70555;BME280;58104;52.744;15.242;2023-02-18T12:46:34;100182.43;;;17.40;37.91
70555;BME280;58104;52.744;15.242;2023-02-18T12:48:59;100175.35;;;17.46;37.92
70555;BME280;58104;52.744;15.242;2023-02-18T12:51:24;100170.15;;;17.31;37.93
70555;BME280;58104;52.744;15.242;2023-02-18T12:53:48;100168.10;;;17.31;37.79
70555;BME280;58104;52.744;15.242;2023-02-18T12:56:19;100163.57;;;17.32;37.78